createdAt,value
2023-03-06T00:01:58.935Z,23.45
2023-03-06T00:04:25.516Z,22.77
2023-03-06T00:06:52.112Z,22.95
2023-03-06T00:09:18.593Z,24.02
2023-03-06T00:11:45.071Z,24.33
2023-03-06T00:14:11.551Z,25.83
2023-03-06T00:16:38.069Z,28.58
2023-03-06T00:19:04.540Z,30.40
2023-03-06T00:21:31.027Z,28.73
2023-03-06T00:23:57.521Z,27.73
2023-03-06T00:26:23.972Z,27.77
2023-03-06T00:28:50.439Z,26.98
2023-03-06T00:31:16.928Z,26.95
2023-03-06T00:33:43.635Z,24.77
2023-03-06T00:36:10.221Z,23.38
2023-03-06T00:38:37.338Z,23.27
2023-03-06T00:41:07.722Z,22.08
2023-03-06T00:43:34.203Z,24.38
2023-03-06T00:46:00.708Z,24.58
2023-03-06T00:48:27.263Z,24.35
2023-03-06T00:50:53.806Z,24.75
2023-03-06T00:53:20.288Z,27.77
2023-03-06T00:55:46.730Z,28.02
2023-03-06T00:58:13.449Z,29.45
2023-03-06T01:00:40.017Z,30.15
2023-03-06T01:03:06.522Z,32.15
2023-03-06T01:05:34.321Z,31.50
2023-03-06T01:08:01.163Z,33.30
2023-03-06T01:10:27.840Z,32.85
2023-03-06T01:12:54.713Z,33.08
2023-03-06T01:15:21.603Z,40.08
2023-03-06T01:17:48.106Z,37.03
2023-03-06T01:20:16.387Z,36.03
2023-03-06T01:22:42.976Z,31.75
2023-03-06T01:25:09.702Z,31.30
2023-03-06T01:27:36.153Z,28.77
2023-03-06T01:30:03.012Z,29.58
2023-03-06T01:32:30.713Z,28.08
2023-03-06T01:34:57.489Z,27.70
2023-03-06T01:37:23.986Z,27.52
2023-03-06T01:39:50.526Z,28.13
2023-03-06T01:42:16.950Z,31.83
2023-03-06T01:45:07.033Z,32.42
2023-03-06T01:47:33.533Z,28.73
2023-03-06T01:50:01.224Z,26.58
2023-03-06T01:52:30.790Z,24.52
2023-03-06T01:55:00.509Z,23.98
2023-03-06T01:57:35.347Z,23.67
2023-03-06T02:00:09.151Z,21.30
2023-03-06T02:02:36.009Z,23.92
2023-03-06T02:05:03.459Z,23.73
2023-03-06T02:07:30.227Z,21.88
2023-03-06T02:09:56.758Z,21.15
2023-03-06T02:12:23.869Z,21.98
2023-03-06T02:14:50.720Z,23.38
2023-03-06T02:17:18.256Z,22.08
2023-03-06T02:20:00.225Z,21.95
2023-03-06T02:22:36.155Z,20.60
2023-03-06T02:25:12.158Z,21.92
2023-03-06T02:27:38.656Z,22.40
2023-03-06T02:30:06.592Z,22.30
2023-03-06T02:32:33.160Z,24.33
2023-03-06T02:34:59.675Z,24.05
2023-03-06T02:37:27.595Z,25.20
2023-03-06T02:40:00.832Z,24.67
2023-03-06T02:42:28.993Z,25.20
2023-03-06T02:44:56.712Z,25.17
2023-03-06T02:47:23.278Z,26.08
2023-03-06T02:49:49.848Z,26.85
2023-03-06T02:52:16.310Z,26.38
2023-03-06T02:54:42.811Z,29.85
2023-03-06T02:57:09.346Z,31.67
2023-03-06T02:59:35.858Z,30.20
2023-03-06T03:02:02.422Z,28.55
2023-03-06T03:04:28.871Z,27.52
2023-03-06T03:06:55.336Z,27.45
2023-03-06T03:09:21.968Z,24.48
2023-03-06T03:11:48.433Z,23.75
2023-03-06T03:14:16.714Z,25.95
2023-03-06T03:16:43.155Z,26.15
2023-03-06T03:19:09.588Z,24.73
2023-03-06T03:21:36.326Z,26.70
2023-03-06T03:24:03.546Z,26.02
2023-03-06T03:26:30.052Z,24.93
2023-03-06T03:28:56.494Z,23.58
2023-03-06T03:31:23.003Z,26.23
2023-03-06T03:33:49.528Z,24.63
2023-03-06T03:36:16.030Z,24.63
2023-03-06T03:38:42.514Z,24.27
2023-03-06T03:41:09.010Z,23.45
2023-03-06T03:43:35.452Z,24.90
2023-03-06T03:46:02.010Z,26.52
2023-03-06T03:48:28.610Z,28.33
2023-03-06T03:50:55.114Z,25.55
2023-03-06T03:53:21.607Z,26.17
2023-03-06T03:55:48.646Z,23.75
2023-03-06T03:58:15.167Z,26.38
2023-03-06T04:00:41.629Z,26.85
2023-03-06T04:03:08.127Z,24.80
2023-03-06T04:05:35.065Z,22.25
2023-03-06T04:08:03.171Z,23.27
2023-03-06T04:12:57.723Z,22.67
2023-03-06T04:15:24.245Z,21.88
2023-03-06T04:17:50.775Z,22.70
2023-03-06T04:20:17.939Z,22.15
2023-03-06T04:22:44.569Z,24.40
2023-03-06T04:25:11.068Z,26.98
2023-03-06T04:27:37.529Z,24.85
2023-03-06T04:30:04.877Z,25.02
2023-03-06T04:32:31.522Z,23.38
2023-03-06T04:34:58.029Z,30.65
2023-03-06T04:37:25.649Z,38.22
2023-03-06T04:39:52.131Z,47.80
2023-03-06T04:42:18.672Z,46.35
2023-03-06T04:44:45.220Z,38.20
2023-03-06T04:47:12.493Z,32.03
2023-03-06T04:49:39.306Z,33.73
2023-03-06T04:52:05.956Z,50.65
2023-03-06T04:54:32.444Z,28.95
2023-03-06T04:57:00.603Z,31.00
2023-03-06T05:01:53.504Z,62.65
2023-03-06T05:04:20.035Z,60.75
2023-03-06T05:06:46.587Z,67.57
2023-03-06T05:09:13.167Z,48.40
2023-03-06T05:11:39.614Z,42.05
2023-03-06T05:14:06.166Z,40.17
2023-03-06T05:16:32.677Z,41.15
2023-03-06T05:18:59.136Z,42.72
2023-03-06T05:21:25.585Z,45.30
2023-03-06T05:23:52.071Z,44.10
2023-03-06T05:26:18.539Z,44.83
2023-03-06T05:28:45.029Z,47.28
2023-03-06T05:31:11.720Z,52.33
2023-03-06T05:33:38.255Z,55.60
2023-03-06T05:36:04.954Z,70.32
2023-03-06T05:38:33.805Z,71.60
2023-03-06T05:41:00.315Z,60.88
2023-03-06T05:43:26.883Z,44.65
2023-03-06T05:46:00.336Z,44.00
2023-03-06T05:48:26.803Z,37.60
2023-03-06T05:50:59.982Z,37.40
2023-03-06T05:53:26.957Z,37.50
2023-03-06T05:56:01.520Z,39.88
2023-03-06T05:58:29.115Z,39.85
2023-03-06T06:00:55.702Z,43.25
2023-03-06T06:03:22.755Z,45.08
2023-03-06T06:05:49.393Z,42.88
2023-03-06T06:08:15.978Z,49.83
2023-03-06T06:10:42.427Z,49.25
2023-03-06T06:13:09.040Z,43.83
2023-03-06T06:15:35.624Z,43.60
2023-03-06T06:18:02.168Z,50.50
2023-03-06T06:20:28.671Z,48.88
2023-03-06T06:22:55.298Z,41.53
2023-03-06T06:25:21.737Z,45.78
2023-03-06T06:27:48.268Z,41.42
2023-03-06T06:30:14.816Z,64.30
2023-03-06T06:32:41.388Z,61.08
2023-03-06T06:35:08.023Z,28.95
2023-03-06T06:37:34.496Z,24.55
2023-03-06T06:40:00.966Z,23.58
2023-03-06T06:42:35.092Z,22.75
2023-03-06T06:45:05.171Z,24.83
2023-03-06T06:47:33.056Z,21.40
2023-03-06T06:49:59.937Z,22.58
2023-03-06T06:52:26.440Z,21.75
2023-03-06T06:54:53.054Z,23.95
2023-03-06T06:57:19.901Z,26.63
2023-03-06T06:59:46.575Z,26.05
2023-03-06T07:02:13.777Z,30.27
2023-03-06T07:04:52.191Z,29.60
2023-03-06T07:07:24.754Z,37.17
2023-03-06T07:09:52.021Z,32.80
2023-03-06T07:12:18.505Z,23.42
2023-03-06T07:14:44.987Z,21.45
2023-03-06T07:17:11.470Z,20.77
2023-03-06T07:19:38.749Z,22.58
2023-03-06T07:22:06.086Z,23.70
2023-03-06T07:24:32.644Z,21.38
2023-03-06T07:26:59.170Z,18.48
2023-03-06T07:29:25.880Z,16.75
2023-03-06T07:31:52.356Z,15.38
2023-03-06T07:34:18.833Z,14.23
2023-03-06T07:36:45.400Z,13.52
2023-03-06T07:39:11.873Z,12.30
2023-03-06T07:41:38.375Z,14.45
2023-03-06T07:44:04.895Z,13.38
2023-03-06T07:46:31.494Z,15.27
2023-03-06T07:48:58.323Z,14.98
2023-03-06T07:51:24.849Z,14.77
2023-03-06T07:53:51.366Z,14.23
2023-03-06T07:56:17.887Z,16.73
2023-03-06T07:58:45.912Z,12.77
2023-03-06T08:01:16.793Z,15.52
2023-03-06T08:03:43.573Z,13.95
2023-03-06T08:06:17.845Z,13.18
2023-03-06T08:08:45.854Z,14.30
2023-03-06T08:11:14.188Z,14.30
2023-03-06T08:16:07.605Z,13.73
2023-03-06T08:18:34.141Z,12.23
2023-03-06T08:21:01.299Z,12.55
2023-03-06T08:23:27.768Z,13.68
2023-03-06T08:26:01.225Z,13.82
2023-03-06T08:28:28.672Z,14.13
2023-03-06T08:30:56.002Z,15.60
2023-03-06T08:33:22.839Z,15.53
2023-03-06T08:35:49.334Z,18.55
2023-03-06T08:38:15.935Z,18.67
2023-03-06T08:40:42.442Z,13.00
2023-03-06T08:43:10.950Z,14.68
2023-03-06T08:45:39.730Z,13.20
2023-03-06T08:48:06.297Z,13.73
2023-03-06T08:50:32.852Z,14.05
2023-03-06T08:52:59.315Z,12.32
2023-03-06T08:55:26.088Z,14.30
2023-03-06T08:57:52.536Z,12.98
2023-03-06T09:00:19.249Z,12.60
2023-03-06T09:02:45.721Z,13.65
2023-03-06T09:05:12.255Z,11.65
2023-03-06T09:07:38.704Z,12.82
2023-03-06T09:10:05.359Z,11.32
2023-03-06T09:12:37.388Z,11.68
2023-03-06T09:15:13.916Z,11.55
2023-03-06T09:17:40.562Z,11.77
2023-03-06T09:20:10.477Z,11.73
2023-03-06T09:22:37.412Z,11.63
2023-03-06T09:25:04.874Z,11.73
2023-03-06T09:27:31.587Z,11.20
2023-03-06T09:29:58.056Z,10.38
2023-03-06T09:32:24.531Z,12.07
2023-03-06T09:34:51.055Z,11.07
2023-03-06T09:37:17.901Z,10.50
2023-03-06T09:39:44.545Z,11.70
2023-03-06T09:42:18.643Z,10.73
2023-03-06T09:44:47.486Z,10.00
2023-03-06T09:47:26.155Z,13.38
2023-03-06T09:50:13.933Z,10.82
2023-03-06T09:52:55.430Z,10.98
2023-03-06T09:55:24.108Z,11.55
2023-03-06T09:57:51.266Z,11.60
2023-03-06T10:00:38.955Z,12.07
2023-03-06T10:03:05.461Z,12.13
2023-03-06T10:05:35.174Z,13.13
2023-03-06T10:08:24.664Z,12.07
2023-03-06T10:10:55.924Z,11.48
2023-03-06T10:13:32.811Z,11.60
2023-03-06T10:16:03.953Z,11.98
2023-03-06T10:18:30.857Z,10.63
2023-03-06T10:21:18.791Z,10.65
2023-03-06T10:23:58.322Z,11.32
2023-03-06T10:29:09.565Z,11.32
2023-03-06T10:31:36.475Z,11.55
2023-03-06T10:34:08.978Z,12.68
2023-03-06T10:36:35.577Z,12.57
2023-03-06T10:39:04.860Z,12.02
2023-03-06T10:41:32.774Z,12.70
2023-03-06T10:44:05.418Z,14.85
2023-03-06T10:46:42.607Z,11.10
2023-03-06T10:49:15.149Z,11.07
2023-03-06T10:51:55.077Z,10.13
2023-03-06T10:54:21.603Z,12.43
2023-03-06T10:56:48.226Z,12.15
2023-03-06T10:59:29.466Z,11.38
2023-03-06T11:01:57.398Z,11.27
2023-03-06T11:04:26.368Z,10.27
2023-03-06T11:07:06.859Z,11.50
2023-03-06T11:09:33.640Z,12.02
2023-03-06T11:12:18.796Z,11.25
2023-03-06T11:14:45.361Z,13.10
2023-03-06T11:17:32.185Z,12.80
2023-03-06T11:20:18.336Z,11.90
2023-03-06T11:22:49.065Z,11.05
2023-03-06T11:25:16.834Z,10.50
2023-03-06T11:27:44.667Z,11.07
2023-03-06T11:30:23.830Z,11.90
2023-03-06T11:32:56.017Z,10.02
2023-03-06T11:35:45.898Z,9.98
2023-03-06T11:38:16.837Z,11.82
2023-03-06T11:40:46.454Z,11.30
2023-03-06T11:43:25.405Z,12.23
2023-03-06T11:48:21.922Z,14.75
2023-03-06T11:50:49.843Z,11.90
2023-03-06T11:53:17.655Z,12.45
2023-03-06T11:55:51.839Z,13.68
2023-03-06T11:58:36.870Z,11.35
2023-03-06T12:01:06.314Z,12.27
2023-03-06T12:03:43.429Z,12.30
2023-03-06T12:06:28.570Z,12.25
2023-03-06T12:08:55.047Z,10.75
2023-03-06T12:11:21.535Z,11.70
2023-03-06T12:14:04.215Z,11.55
2023-03-06T12:16:43.195Z,11.95
2023-03-06T12:19:45.026Z,11.48
2023-03-06T12:22:31.223Z,13.70
2023-03-06T12:25:04.072Z,12.75
2023-03-06T12:27:38.467Z,11.02
2023-03-06T12:30:23.624Z,10.88
2023-03-06T12:32:59.805Z,11.75
2023-03-06T12:35:26.294Z,11.95
2023-03-06T12:37:55.567Z,12.23
2023-03-06T12:40:37.170Z,11.95
2023-03-06T12:43:21.780Z,10.57
2023-03-06T12:45:49.784Z,12.55
2023-03-06T12:48:20.296Z,9.73
2023-03-06T12:50:47.153Z,10.88
2023-03-06T12:53:16.187Z,10.32
2023-03-06T12:55:45.293Z,10.82
2023-03-06T12:58:30.289Z,11.98
2023-03-06T13:01:03.671Z,12.35
2023-03-06T13:03:30.612Z,10.05
2023-03-06T13:06:15.793Z,11.77
2023-03-06T13:08:50.958Z,10.60
2023-03-06T13:11:28.942Z,10.35
2023-03-06T13:13:57.663Z,10.27
2023-03-06T13:16:31.419Z,10.52
2023-03-06T13:18:58.036Z,10.80
2023-03-06T13:21:44.356Z,11.50
2023-03-06T13:24:24.168Z,11.23
2023-03-06T13:26:58.025Z,11.65
2023-03-06T13:29:36.802Z,10.20
2023-03-06T13:34:34.699Z,10.63
2023-03-06T13:37:13.456Z,10.40
2023-03-06T13:39:54.930Z,10.32
2023-03-06T13:42:30.435Z,11.05
2023-03-06T13:44:57.997Z,10.25
2023-03-06T13:48:01.354Z,9.45
2023-03-06T13:50:29.273Z,10.45
2023-03-06T13:53:14.508Z,10.52
2023-03-06T13:55:57.865Z,10.07
2023-03-06T13:58:30.310Z,10.30
2023-03-06T14:01:06.772Z,10.68
2023-03-06T14:03:47.702Z,10.68
2023-03-06T14:06:32.844Z,11.45
2023-03-06T14:08:59.538Z,11.40
2023-03-06T14:11:26.451Z,10.35
2023-03-06T14:13:54.382Z,10.80
2023-03-06T14:16:27.848Z,11.20
2023-03-06T14:18:55.924Z,12.23
2023-03-06T14:21:27.832Z,10.95
2023-03-06T14:24:00.387Z,12.43
2023-03-06T14:26:28.661Z,11.85
2023-03-06T14:28:56.757Z,15.10
2023-03-06T14:31:24.566Z,12.93
2023-03-06T14:33:58.618Z,12.10
2023-03-06T14:36:44.745Z,12.82
2023-03-06T14:39:14.516Z,14.07
2023-03-06T14:41:40.996Z,15.05
2023-03-06T14:44:18.102Z,13.70
2023-03-06T14:46:45.948Z,11.90
2023-03-06T14:49:13.957Z,13.23
2023-03-06T14:51:43.158Z,13.25
2023-03-06T14:54:14.087Z,12.85
2023-03-06T14:56:42.198Z,14.13
2023-03-06T14:59:12.182Z,15.70
2023-03-06T15:01:40.744Z,14.77
2023-03-06T15:04:23.785Z,14.43
2023-03-06T15:06:50.418Z,16.05
2023-03-06T15:09:20.911Z,15.13
2023-03-06T15:11:51.006Z,14.90
2023-03-06T15:14:18.926Z,14.82
2023-03-06T15:16:45.489Z,16.23
2023-03-06T15:19:19.395Z,15.50
2023-03-06T15:21:50.651Z,16.08
2023-03-06T15:24:28.884Z,16.00
2023-03-06T15:26:55.820Z,18.23
2023-03-06T15:29:23.181Z,16.95
2023-03-06T15:31:49.740Z,16.40
2023-03-06T15:34:18.681Z,38.67
2023-03-06T15:36:49.318Z,24.08
2023-03-06T15:39:33.783Z,35.15
2023-03-06T15:42:13.354Z,21.40
2023-03-06T15:44:40.054Z,31.38
2023-03-06T15:47:09.570Z,26.65
2023-03-06T15:49:37.600Z,39.35
2023-03-06T15:52:04.905Z,28.20
2023-03-06T15:54:32.918Z,32.10
2023-03-06T15:59:27.435Z,21.75
2023-03-06T16:01:54.038Z,30.42
2023-03-06T16:04:20.680Z,43.63
2023-03-06T16:06:47.190Z,35.97
2023-03-06T16:09:14.216Z,39.58
2023-03-06T16:11:44.357Z,21.65
2023-03-06T16:14:19.012Z,18.20
2023-03-06T16:16:45.841Z,13.55
2023-03-06T16:19:25.384Z,11.13
2023-03-06T16:21:52.749Z,10.50
2023-03-06T16:24:19.302Z,12.35
2023-03-06T16:26:47.261Z,10.52
2023-03-06T16:29:21.587Z,9.63
2023-03-06T16:31:48.700Z,9.90
2023-03-06T16:34:15.532Z,9.70
2023-03-06T16:36:42.044Z,10.15
2023-03-06T16:39:19.388Z,10.82
2023-03-06T16:41:46.017Z,11.40
2023-03-06T16:44:12.714Z,14.93
2023-03-06T16:46:40.802Z,34.22
2023-03-06T16:49:07.322Z,23.52
2023-03-06T16:51:34.226Z,18.38
2023-03-06T16:54:00.850Z,15.43
2023-03-06T16:56:27.394Z,22.75
2023-03-06T16:58:53.851Z,46.38
2023-03-06T17:01:20.368Z,54.00
2023-03-06T17:03:47.026Z,56.88
2023-03-06T17:06:15.186Z,45.88
2023-03-06T17:08:41.821Z,36.88
2023-03-06T17:11:08.632Z,18.23
2023-03-06T17:13:36.435Z,19.67
2023-03-06T17:16:03.028Z,22.02
2023-03-06T17:18:29.824Z,11.43
2023-03-06T17:20:57.051Z,26.23
2023-03-06T17:23:27.238Z,22.88
2023-03-06T17:26:02.089Z,12.02
2023-03-06T17:28:28.567Z,10.77
2023-03-06T17:30:55.015Z,10.18
2023-03-06T17:33:21.508Z,10.35
2023-03-06T17:35:47.995Z,13.38
2023-03-06T17:38:14.464Z,10.43
2023-03-06T17:40:40.953Z,10.13
2023-03-06T17:43:07.439Z,11.52
2023-03-06T17:45:35.728Z,11.05
2023-03-06T17:50:28.658Z,10.50
2023-03-06T17:52:55.187Z,10.00
2023-03-06T17:55:21.863Z,10.15
2023-03-06T17:57:48.302Z,11.75
2023-03-06T18:00:15.061Z,10.95
2023-03-06T18:02:41.552Z,13.27
2023-03-06T18:05:08.386Z,21.83
2023-03-06T18:07:34.915Z,29.33
2023-03-06T18:10:01.396Z,17.02
2023-03-06T18:12:27.958Z,19.95
2023-03-06T18:14:54.636Z,15.57
2023-03-06T18:17:21.090Z,21.23
2023-03-06T18:19:47.890Z,18.35
2023-03-06T18:22:14.390Z,30.35
2023-03-06T18:24:41.153Z,30.33
2023-03-06T18:27:07.657Z,18.00
2023-03-06T18:29:34.192Z,30.08
2023-03-06T18:32:02.502Z,34.03
2023-03-06T18:34:29.102Z,36.90
2023-03-06T18:36:57.042Z,37.65
2023-03-06T18:39:23.621Z,33.67
2023-03-06T18:41:50.151Z,18.40
2023-03-06T18:44:17.711Z,19.13
2023-03-06T18:46:44.283Z,18.45
2023-03-06T18:49:11.403Z,18.10
2023-03-06T18:51:38.032Z,14.95
2023-03-06T18:54:05.623Z,13.38
2023-03-06T18:56:32.295Z,14.00
2023-03-06T18:59:05.543Z,12.63
2023-03-06T19:01:32.421Z,20.70
2023-03-06T19:04:01.235Z,26.08
2023-03-06T19:06:28.813Z,28.65
2023-03-06T19:08:58.795Z,34.70
2023-03-06T19:11:26.893Z,21.63
2023-03-06T19:13:53.613Z,22.75
2023-03-06T19:16:24.287Z,19.48
2023-03-06T19:18:51.332Z,17.08
2023-03-06T19:21:19.113Z,14.10
2023-03-06T19:23:45.650Z,15.23
2023-03-06T19:26:12.555Z,13.25
2023-03-06T19:28:40.082Z,14.45
2023-03-06T19:31:09.646Z,17.67
2023-03-06T19:33:37.896Z,15.75
2023-03-06T19:36:05.458Z,17.15
2023-03-06T19:38:32.288Z,13.10
2023-03-06T19:40:58.915Z,14.55
2023-03-06T19:43:25.476Z,16.52
2023-03-06T19:45:52.216Z,14.98
2023-03-06T19:48:18.728Z,14.38
2023-03-06T19:50:45.570Z,16.73
2023-03-06T19:53:12.231Z,17.00
2023-03-06T19:55:39.167Z,16.30
2023-03-06T19:58:06.173Z,19.98
2023-03-06T20:00:33.881Z,17.45
2023-03-06T20:03:00.460Z,14.98
2023-03-06T20:05:26.985Z,15.60
2023-03-06T20:07:53.556Z,14.38
2023-03-06T20:10:20.072Z,16.13
2023-03-06T20:12:46.588Z,14.65
2023-03-06T20:15:13.141Z,17.15
2023-03-06T20:17:44.969Z,19.23
2023-03-06T20:20:12.002Z,13.82
2023-03-06T20:22:38.608Z,21.83
2023-03-06T20:25:05.370Z,17.27
2023-03-06T20:27:31.890Z,15.02
2023-03-06T20:29:58.326Z,14.98
2023-03-06T20:32:24.889Z,14.98
2023-03-06T20:34:51.384Z,16.85
2023-03-06T20:37:17.825Z,15.48
2023-03-06T20:39:44.337Z,15.07
2023-03-06T20:42:10.780Z,18.45
2023-03-06T20:44:37.257Z,19.42
2023-03-06T20:47:03.740Z,15.63
2023-03-06T20:49:30.271Z,16.30
2023-03-06T20:51:56.995Z,15.50
2023-03-06T20:54:23.566Z,16.05
2023-03-06T20:56:50.458Z,22.10
2023-03-06T20:59:17.116Z,25.45
2023-03-06T21:01:44.882Z,18.30
2023-03-06T21:04:13.853Z,13.52
2023-03-06T21:06:42.019Z,14.68
2023-03-06T21:09:08.478Z,13.95
2023-03-06T21:11:35.074Z,13.98
2023-03-06T21:14:01.567Z,13.88
2023-03-06T21:16:28.293Z,14.77
2023-03-06T21:18:55.364Z,14.10
2023-03-06T21:21:23.130Z,18.77
2023-03-06T21:23:49.941Z,16.48
2023-03-06T21:26:17.927Z,12.52
2023-03-06T21:28:44.421Z,13.02
2023-03-06T21:31:11.835Z,13.32
2023-03-06T21:33:38.791Z,14.15
2023-03-06T21:36:05.428Z,13.45
2023-03-06T21:38:31.920Z,12.60
2023-03-06T21:41:06.427Z,15.35
2023-03-06T21:43:33.016Z,13.45
2023-03-06T21:45:59.569Z,13.95
2023-03-06T21:48:26.159Z,14.20
2023-03-06T21:50:52.710Z,13.40
2023-03-06T21:53:19.138Z,12.75
2023-03-06T21:55:45.677Z,16.17
2023-03-06T21:58:12.134Z,13.73
2023-03-06T22:00:38.697Z,13.82
2023-03-06T22:03:05.306Z,13.75
2023-03-06T22:05:34.828Z,15.13
2023-03-06T22:08:01.302Z,14.73
2023-03-06T22:10:28.229Z,13.85
2023-03-06T22:12:54.684Z,13.10
2023-03-06T22:15:21.945Z,15.07
2023-03-06T22:17:48.759Z,16.10
2023-03-06T22:20:15.475Z,15.43
2023-03-06T22:22:42.342Z,14.20
2023-03-06T22:25:09.308Z,16.77
2023-03-06T22:27:35.756Z,17.77
2023-03-06T22:30:02.481Z,15.90
2023-03-06T22:32:29.011Z,17.25
2023-03-06T22:34:55.571Z,18.27
2023-03-06T22:37:22.094Z,21.50
2023-03-06T22:39:48.590Z,18.20
2023-03-06T22:42:15.063Z,18.02
2023-03-06T22:44:41.552Z,15.80
2023-03-06T22:47:08.324Z,18.13
2023-03-06T22:49:34.799Z,16.75
2023-03-06T22:52:01.242Z,14.65
2023-03-06T22:54:27.718Z,15.35
2023-03-06T22:56:54.181Z,15.48
2023-03-06T22:59:20.674Z,14.70
2023-03-06T23:01:47.119Z,15.45
2023-03-06T23:04:13.615Z,15.80
2023-03-06T23:06:41.174Z,16.67
2023-03-06T23:09:11.604Z,14.38
2023-03-06T23:11:38.140Z,14.63
2023-03-06T23:14:05.925Z,15.77
2023-03-06T23:16:32.925Z,15.85
2023-03-06T23:18:59.703Z,15.30
2023-03-06T23:21:26.218Z,14.43
2023-03-06T23:23:53.395Z,15.13
2023-03-06T23:26:21.536Z,11.77
2023-03-06T23:31:15.848Z,14.30
2023-03-06T23:33:42.618Z,15.15
2023-03-06T23:36:11.019Z,15.75
2023-03-06T23:38:37.911Z,15.65
2023-03-06T23:41:05.598Z,14.65
2023-03-06T23:43:32.194Z,14.70
2023-03-06T23:45:59.201Z,15.82
2023-03-06T23:48:26.764Z,18.63
2023-03-06T23:50:53.597Z,15.30
2023-03-06T23:53:20.298Z,17.05
2023-03-06T23:55:47.897Z,18.75
2023-03-06T23:58:15.683Z,18.85
